createdAt,value
2019-01-29T00:01:56.667Z,13.80
2019-01-29T00:04:25.763Z,15.00
2019-01-29T00:06:54.883Z,13.40
2019-01-29T00:09:24.070Z,15.83
2019-01-29T00:11:53.195Z,13.17
2019-01-29T00:14:22.300Z,13.20
2019-01-29T00:16:51.407Z,13.77
2019-01-29T00:19:20.506Z,13.57
2019-01-29T00:21:49.610Z,15.33
2019-01-29T00:24:18.719Z,12.23
2019-01-29T00:26:47.822Z,12.73
2019-01-29T00:29:16.918Z,11.97
2019-01-29T00:31:46.034Z,13.00
2019-01-29T00:34:15.127Z,12.43
2019-01-29T00:36:44.308Z,12.87
2019-01-29T00:39:13.395Z,12.90
2019-01-29T00:41:42.515Z,12.53
2019-01-29T00:44:11.619Z,12.77
2019-01-29T00:46:40.730Z,13.10
2019-01-29T00:49:09.831Z,13.57
2019-01-29T00:51:38.938Z,12.90
2019-01-29T00:54:08.038Z,14.87
2019-01-29T00:56:37.145Z,13.47
2019-01-29T00:59:06.244Z,12.20
2019-01-29T01:01:35.355Z,12.90
2019-01-29T01:04:04.526Z,12.37
2019-01-29T01:06:34.623Z,12.07
2019-01-29T01:09:05.424Z,12.67
2019-01-29T01:11:34.519Z,12.57
2019-01-29T01:14:04.602Z,12.13
2019-01-29T01:16:33.706Z,12.07
2019-01-29T01:19:02.814Z,12.00
2019-01-29T01:21:31.916Z,13.07
2019-01-29T01:24:01.037Z,12.33
2019-01-29T01:26:30.129Z,11.97
2019-01-29T01:28:59.237Z,11.63
2019-01-29T01:31:28.339Z,12.13
2019-01-29T01:33:57.452Z,11.43
2019-01-29T01:36:26.547Z,11.13
2019-01-29T01:38:55.663Z,12.40
2019-01-29T01:41:24.865Z,12.10
2019-01-29T01:43:53.978Z,11.60
2019-01-29T01:46:23.077Z,12.00
2019-01-29T01:48:52.186Z,12.30
2019-01-29T01:51:21.282Z,11.83
2019-01-29T01:53:50.395Z,12.50
2019-01-29T01:56:19.498Z,12.27
2019-01-29T01:58:48.628Z,12.17
2019-01-29T02:01:17.714Z,12.63
2019-01-29T02:03:47.039Z,12.90
2019-01-29T02:06:17.869Z,12.23
2019-01-29T02:08:47.001Z,12.60
2019-01-29T02:11:16.192Z,11.53
2019-01-29T02:13:45.417Z,11.10
2019-01-29T02:16:14.570Z,12.93
2019-01-29T02:18:43.679Z,12.97
2019-01-29T02:21:12.774Z,12.63
2019-01-29T02:23:41.883Z,12.93
2019-01-29T02:26:10.977Z,12.60
2019-01-29T02:28:40.094Z,11.40
2019-01-29T02:31:09.270Z,13.40
2019-01-29T02:33:38.595Z,13.20
2019-01-29T02:36:07.697Z,11.50
2019-01-29T02:38:36.799Z,13.27
2019-01-29T02:41:05.908Z,13.97
2019-01-29T02:43:35.150Z,12.13
2019-01-29T02:46:04.311Z,13.10
2019-01-29T02:48:33.413Z,14.17
2019-01-29T02:51:02.662Z,13.80
2019-01-29T02:53:31.807Z,12.20
2019-01-29T02:56:00.957Z,13.43
2019-01-29T02:58:30.053Z,11.97
2019-01-29T03:00:59.166Z,10.87
2019-01-29T03:03:28.266Z,11.93
2019-01-29T03:05:57.378Z,11.97
2019-01-29T03:08:26.494Z,12.37
2019-01-29T03:10:55.602Z,11.43
2019-01-29T03:13:24.717Z,11.87
2019-01-29T03:15:53.827Z,12.07
2019-01-29T03:18:22.931Z,11.33
2019-01-29T03:20:52.032Z,10.20
2019-01-29T03:23:27.276Z,10.50
2019-01-29T03:25:51.939Z,10.67
2019-01-29T03:28:21.037Z,11.00
2019-01-29T03:30:50.160Z,11.03
2019-01-29T03:33:19.377Z,10.40
2019-01-29T03:35:48.545Z,10.13
2019-01-29T03:38:17.911Z,10.33
2019-01-29T03:40:47.051Z,10.90
2019-01-29T03:43:16.172Z,10.73
2019-01-29T03:45:45.313Z,11.53
2019-01-29T03:48:14.438Z,10.63
2019-01-29T03:50:43.533Z,10.03
2019-01-29T03:53:12.633Z,10.10
2019-01-29T03:55:41.743Z,9.33
2019-01-29T03:58:10.838Z,9.40
2019-01-29T04:00:39.943Z,9.80
2019-01-29T04:03:09.103Z,9.33
2019-01-29T04:05:38.227Z,8.83
2019-01-29T04:08:07.323Z,10.17
2019-01-29T04:10:36.443Z,10.03
2019-01-29T04:13:05.542Z,9.80
2019-01-29T04:15:34.664Z,10.73
2019-01-29T04:18:03.774Z,11.10
2019-01-29T04:20:32.882Z,10.17
2019-01-29T04:23:01.999Z,11.17
2019-01-29T04:25:31.087Z,10.53
2019-01-29T04:28:00.200Z,10.40
2019-01-29T04:30:29.311Z,10.67
2019-01-29T04:32:58.422Z,10.33
2019-01-29T04:35:27.544Z,11.33
2019-01-29T04:37:56.637Z,11.90
2019-01-29T04:40:25.742Z,11.97
2019-01-29T04:42:54.855Z,12.07
2019-01-29T04:45:23.959Z,11.87
2019-01-29T04:47:53.193Z,11.43
2019-01-29T04:50:22.290Z,11.70
2019-01-29T04:52:51.399Z,11.50
2019-01-29T04:55:20.502Z,11.73
2019-01-29T04:57:49.639Z,11.23
2019-01-29T05:00:20.874Z,11.23
2019-01-29T05:02:49.987Z,11.60
2019-01-29T05:05:19.449Z,10.80
2019-01-29T05:07:48.614Z,11.13
2019-01-29T05:10:19.047Z,10.37
2019-01-29T05:12:48.174Z,10.37
2019-01-29T05:15:20.202Z,9.83
2019-01-29T05:17:49.313Z,9.43
2019-01-29T05:20:20.926Z,9.73
2019-01-29T05:22:50.031Z,8.83
2019-01-29T05:25:19.127Z,9.57
2019-01-29T05:27:48.241Z,8.63
2019-01-29T05:30:22.339Z,9.10
2019-01-29T05:32:51.442Z,8.13
2019-01-29T05:35:20.541Z,8.77
2019-01-29T05:37:49.648Z,8.87
2019-01-29T05:40:21.443Z,8.47
2019-01-29T05:42:50.646Z,7.70
2019-01-29T05:45:20.987Z,8.43
2019-01-29T05:47:50.086Z,8.00
2019-01-29T05:50:19.183Z,9.10
2019-01-29T05:52:48.289Z,7.97
2019-01-29T05:55:17.382Z,8.03
2019-01-29T05:57:46.562Z,8.50
2019-01-29T06:00:18.675Z,8.67
2019-01-29T06:02:48.689Z,7.87
2019-01-29T06:05:17.965Z,8.70
2019-01-29T06:07:47.078Z,8.13
2019-01-29T06:10:17.115Z,8.47
2019-01-29T06:12:46.228Z,8.87
2019-01-29T06:15:23.591Z,7.80
2019-01-29T06:17:52.702Z,8.47
2019-01-29T06:20:24.607Z,8.40
2019-01-29T06:22:53.703Z,8.20
2019-01-29T06:25:22.884Z,7.87
2019-01-29T06:27:52.098Z,8.07
2019-01-29T06:30:23.767Z,8.10
2019-01-29T06:32:54.491Z,8.37
2019-01-29T06:35:25.219Z,8.67
2019-01-29T06:37:54.324Z,7.60
2019-01-29T06:40:27.349Z,8.37
2019-01-29T06:42:56.487Z,8.40
2019-01-29T06:45:26.550Z,8.47
2019-01-29T06:47:55.668Z,9.50
2019-01-29T06:50:26.402Z,8.70
2019-01-29T06:52:55.782Z,8.70
2019-01-29T06:55:25.513Z,8.37
2019-01-29T06:57:56.013Z,8.77
2019-01-29T07:00:30.678Z,9.00
2019-01-29T07:03:00.620Z,9.33
2019-01-29T07:05:29.712Z,8.60
2019-01-29T07:07:58.835Z,9.57
2019-01-29T07:10:28.068Z,9.50
2019-01-29T07:12:57.179Z,8.77
2019-01-29T07:15:47.727Z,9.80
2019-01-29T07:18:27.176Z,9.73
2019-01-29T07:20:56.271Z,10.40
2019-01-29T07:23:25.384Z,10.53
2019-01-29T07:25:54.489Z,10.20
2019-01-29T07:28:23.615Z,10.60
2019-01-29T07:30:52.715Z,11.70
2019-01-29T07:33:21.815Z,11.33
2019-01-29T07:35:50.951Z,13.33
2019-01-29T07:38:20.059Z,12.77
2019-01-29T07:40:49.172Z,15.00
2019-01-29T07:43:18.270Z,14.60
2019-01-29T07:45:47.373Z,14.70
2019-01-29T07:48:16.475Z,15.80
2019-01-29T07:50:45.589Z,14.43
2019-01-29T07:53:14.699Z,15.20
2019-01-29T07:55:43.790Z,14.20
2019-01-29T07:58:13.939Z,16.13
2019-01-29T08:00:43.042Z,16.80
2019-01-29T08:03:12.149Z,17.30
2019-01-29T08:05:41.251Z,16.13
2019-01-29T08:08:10.351Z,15.60
2019-01-29T08:10:39.469Z,15.57
2019-01-29T08:13:08.571Z,17.93
2019-01-29T08:15:37.695Z,18.30
2019-01-29T08:18:06.863Z,17.47
2019-01-29T08:20:35.977Z,17.13
2019-01-29T08:23:05.068Z,17.67
2019-01-29T08:25:34.185Z,18.07
2019-01-29T08:28:03.354Z,17.53
2019-01-29T08:30:32.467Z,19.00
2019-01-29T08:33:01.579Z,18.97
2019-01-29T08:35:30.699Z,17.57
2019-01-29T08:37:59.802Z,18.37
2019-01-29T08:40:28.915Z,17.47
2019-01-29T08:42:58.014Z,18.57
2019-01-29T08:45:27.181Z,18.00
2019-01-29T08:47:56.295Z,18.43
2019-01-29T08:50:26.447Z,17.33
2019-01-29T08:52:55.547Z,20.27
2019-01-29T08:55:24.657Z,17.47
2019-01-29T08:57:53.759Z,17.90
2019-01-29T09:00:23.239Z,18.77
2019-01-29T09:02:52.354Z,18.37
2019-01-29T09:05:21.471Z,17.57
2019-01-29T09:07:50.600Z,18.20
2019-01-29T09:10:20.751Z,18.67
2019-01-29T09:12:49.873Z,16.57
2019-01-29T09:15:20.483Z,16.70
2019-01-29T09:17:49.583Z,16.90
2019-01-29T09:20:20.226Z,18.00
2019-01-29T09:22:49.331Z,18.87
2019-01-29T09:25:22.566Z,18.27
2019-01-29T09:27:50.830Z,18.07
2019-01-29T09:30:20.470Z,18.90
2019-01-29T09:32:49.579Z,18.40
2019-01-29T09:35:18.683Z,19.90
2019-01-29T09:37:47.795Z,19.23
2019-01-29T09:40:20.153Z,19.70
2019-01-29T09:42:49.279Z,18.87
2019-01-29T09:45:19.546Z,18.87
2019-01-29T09:47:48.699Z,18.97
2019-01-29T09:50:23.898Z,19.80
2019-01-29T09:52:53.204Z,19.10
2019-01-29T09:55:28.886Z,19.40
2019-01-29T09:57:54.144Z,18.13
2019-01-29T10:00:33.845Z,17.87
2019-01-29T10:03:02.959Z,17.57
2019-01-29T10:05:33.035Z,18.40
2019-01-29T10:08:02.255Z,19.23
2019-01-29T10:10:31.350Z,19.30
2019-01-29T10:13:00.458Z,19.10
2019-01-29T10:15:34.566Z,16.90
2019-01-29T10:18:04.248Z,17.93
2019-01-29T10:20:33.347Z,16.70
2019-01-29T10:23:02.589Z,17.30
2019-01-29T10:25:37.518Z,17.73
2019-01-29T10:28:02.606Z,18.03
2019-01-29T10:30:31.702Z,17.27
2019-01-29T10:33:00.843Z,18.73
2019-01-29T10:35:29.951Z,17.80
2019-01-29T10:37:59.058Z,17.10
2019-01-29T10:40:28.270Z,17.20
2019-01-29T10:42:57.932Z,17.63
2019-01-29T10:45:28.870Z,16.97
2019-01-29T10:47:58.003Z,16.80
2019-01-29T10:50:29.601Z,17.13
2019-01-29T10:52:59.083Z,17.03
2019-01-29T10:55:28.187Z,17.20
2019-01-29T10:57:57.468Z,15.80
2019-01-29T11:00:29.323Z,16.30
2019-01-29T11:02:58.428Z,15.40
2019-01-29T11:05:27.527Z,16.23
2019-01-29T11:07:56.638Z,16.47
2019-01-29T11:10:25.734Z,17.10
2019-01-29T11:12:54.847Z,18.07
2019-01-29T11:15:26.947Z,17.47
2019-01-29T11:17:56.124Z,18.07
2019-01-29T11:20:25.218Z,17.60
2019-01-29T11:22:54.573Z,18.13
2019-01-29T11:25:28.748Z,19.60
2019-01-29T11:27:57.861Z,19.37
2019-01-29T11:30:28.799Z,19.53
2019-01-29T11:32:57.911Z,20.53
2019-01-29T11:35:27.013Z,18.17
2019-01-29T11:37:56.198Z,20.70
2019-01-29T11:40:27.429Z,22.13
2019-01-29T11:42:57.720Z,22.30
2019-01-29T11:45:35.412Z,22.47
2019-01-29T11:48:04.527Z,22.50
2019-01-29T11:50:33.626Z,24.37
2019-01-29T11:53:02.758Z,23.63
2019-01-29T11:55:31.855Z,25.57
2019-01-29T11:58:00.983Z,23.57
2019-01-29T12:00:39.719Z,24.17
2019-01-29T12:03:08.830Z,24.53
2019-01-29T12:05:37.923Z,22.43
2019-01-29T12:08:07.994Z,23.07
2019-01-29T12:10:37.210Z,21.87
2019-01-29T12:13:06.325Z,23.73
2019-01-29T12:15:35.427Z,24.63
2019-01-29T12:18:05.167Z,23.17
2019-01-29T12:20:34.281Z,22.87
2019-01-29T12:23:03.390Z,23.47
2019-01-29T12:25:32.531Z,23.80
2019-01-29T12:28:01.635Z,22.47
2019-01-29T12:30:30.742Z,24.13
2019-01-29T12:33:01.688Z,22.60
2019-01-29T12:35:31.770Z,20.77
2019-01-29T12:38:00.863Z,23.20
2019-01-29T12:40:30.958Z,20.97
2019-01-29T12:43:00.047Z,21.03
2019-01-29T12:45:29.154Z,19.77
2019-01-29T12:47:58.262Z,19.60
2019-01-29T12:50:29.888Z,20.37
2019-01-29T12:53:00.634Z,18.53
2019-01-29T12:55:29.734Z,17.73
2019-01-29T12:57:58.838Z,17.90
2019-01-29T13:00:29.658Z,17.97
2019-01-29T13:02:58.756Z,15.90
2019-01-29T13:05:27.871Z,17.70
2019-01-29T13:07:56.970Z,16.50
2019-01-29T13:10:26.454Z,14.37
2019-01-29T13:12:55.550Z,17.30
2019-01-29T13:15:28.164Z,17.40
2019-01-29T13:17:58.902Z,17.27
2019-01-29T13:20:28.027Z,15.97
2019-01-29T13:22:57.127Z,15.90
2019-01-29T13:25:26.242Z,17.80
2019-01-29T13:27:55.338Z,18.63
2019-01-29T13:30:34.939Z,17.10
2019-01-29T13:33:06.656Z,17.50
2019-01-29T13:35:36.695Z,17.37
2019-01-29T13:38:06.749Z,18.30
2019-01-29T13:40:35.923Z,17.67
2019-01-29T13:43:05.659Z,17.33
2019-01-29T13:45:34.776Z,17.97
2019-01-29T13:48:04.243Z,16.37
2019-01-29T13:50:38.604Z,16.23
2019-01-29T13:53:08.774Z,15.80
2019-01-29T13:55:37.894Z,17.87
2019-01-29T13:58:08.126Z,18.83
2019-01-29T14:00:40.667Z,18.80
2019-01-29T14:03:11.975Z,17.80
2019-01-29T14:05:41.076Z,19.57
2019-01-29T14:08:10.180Z,18.17
2019-01-29T14:10:39.282Z,18.43
2019-01-29T14:13:08.383Z,17.67
2019-01-29T14:15:39.136Z,18.13
2019-01-29T14:18:08.508Z,17.37
2019-01-29T14:20:37.611Z,19.20
2019-01-29T14:23:08.047Z,17.67
2019-01-29T14:25:37.150Z,16.07
2019-01-29T14:28:06.319Z,17.53
2019-01-29T14:30:36.495Z,17.13
2019-01-29T14:33:06.544Z,16.63
2019-01-29T14:35:35.659Z,14.87
2019-01-29T14:38:16.743Z,15.27
2019-01-29T14:40:45.851Z,14.90
2019-01-29T14:43:18.289Z,14.83
2019-01-29T14:45:47.400Z,13.60
2019-01-29T14:48:16.495Z,13.53
2019-01-29T14:50:45.627Z,15.10
2019-01-29T14:53:14.734Z,16.00
2019-01-29T14:55:43.848Z,16.07
2019-01-29T14:58:12.947Z,14.63
2019-01-29T15:00:42.058Z,14.40
2019-01-29T15:03:11.409Z,14.97
2019-01-29T15:05:40.753Z,14.53
2019-01-29T15:08:09.932Z,20.40
2019-01-29T15:10:39.127Z,30.53
2019-01-29T15:13:08.293Z,28.43
2019-01-29T15:15:39.523Z,19.77
2019-01-29T15:18:28.539Z,17.67
2019-01-29T15:20:57.659Z,18.37
2019-01-29T15:23:26.755Z,19.63
2019-01-29T15:25:55.876Z,15.93
2019-01-29T15:28:25.056Z,30.63
2019-01-29T15:30:54.160Z,15.53
2019-01-29T15:33:23.259Z,14.60
2019-01-29T15:35:52.372Z,14.77
2019-01-29T15:38:21.572Z,15.37
2019-01-29T15:40:50.758Z,14.53
2019-01-29T15:43:19.918Z,13.93
2019-01-29T15:45:50.729Z,14.30
2019-01-29T15:48:22.639Z,15.53
2019-01-29T15:50:51.747Z,14.83
2019-01-29T15:53:20.881Z,15.57
2019-01-29T15:55:49.979Z,14.57
2019-01-29T15:58:19.097Z,14.63
2019-01-29T16:00:48.204Z,14.57
2019-01-29T16:03:17.318Z,14.87
2019-01-29T16:05:46.420Z,14.23
2019-01-29T16:08:15.530Z,14.40
2019-01-29T16:10:46.070Z,15.47
2019-01-29T16:13:15.191Z,15.73
2019-01-29T16:15:44.303Z,14.90
2019-01-29T16:18:13.997Z,15.27
2019-01-29T16:20:43.103Z,15.87
2019-01-29T16:23:12.213Z,15.77
2019-01-29T16:25:41.316Z,15.13
2019-01-29T16:28:10.423Z,15.43
2019-01-29T16:30:39.695Z,13.87
2019-01-29T16:33:08.821Z,15.00
2019-01-29T16:35:43.208Z,15.33
2019-01-29T16:38:12.382Z,15.13
2019-01-29T16:40:43.418Z,15.37
2019-01-29T16:43:12.547Z,14.87
2019-01-29T16:45:41.651Z,15.57
2019-01-29T16:48:11.159Z,15.50
2019-01-29T16:50:40.257Z,15.23
2019-01-29T16:53:09.641Z,15.70
2019-01-29T16:55:38.743Z,15.53
2019-01-29T16:58:07.852Z,14.90
2019-01-29T17:00:39.294Z,15.07
2019-01-29T17:03:08.475Z,15.63
2019-01-29T17:05:37.583Z,14.73
2019-01-29T17:08:06.709Z,14.53
2019-01-29T17:10:35.825Z,14.50
2019-01-29T17:13:05.465Z,15.43
2019-01-29T17:15:38.240Z,16.10
2019-01-29T17:18:08.182Z,15.80
2019-01-29T17:20:44.650Z,14.90
2019-01-29T17:23:13.770Z,13.87
2019-01-29T17:25:42.875Z,12.97
2019-01-29T17:28:11.978Z,12.83
2019-01-29T17:30:44.944Z,13.00
2019-01-29T17:33:16.392Z,12.43
2019-01-29T17:35:45.715Z,12.47
2019-01-29T17:38:14.883Z,12.47
2019-01-29T17:56:24.263Z,11.63
2019-01-29T17:58:53.384Z,11.43
2019-01-29T18:01:22.523Z,11.47
2019-01-29T18:03:51.651Z,11.97
2019-01-29T18:06:24.102Z,11.77
2019-01-29T18:08:53.273Z,12.07
2019-01-29T18:11:22.403Z,11.50
2019-01-29T18:13:51.534Z,12.53
2019-01-29T18:16:20.632Z,12.03
2019-01-29T18:18:49.748Z,12.40
2019-01-29T18:21:19.034Z,13.20
2019-01-29T18:23:48.257Z,12.90
2019-01-29T18:26:17.387Z,13.03
2019-01-29T18:28:46.547Z,12.50
2019-01-29T18:31:16.475Z,12.20
2019-01-29T18:33:45.599Z,13.00
2019-01-29T18:36:14.710Z,12.67
2019-01-29T18:38:43.882Z,12.30
2019-01-29T18:41:12.983Z,11.50
2019-01-29T18:43:42.168Z,12.97
2019-01-29T18:46:12.472Z,13.80
2019-01-29T18:48:41.597Z,13.37
2019-01-29T18:51:10.708Z,12.93
2019-01-29T18:53:39.976Z,13.27
2019-01-29T18:56:09.122Z,13.57
2019-01-29T18:58:45.409Z,14.23
2019-01-29T19:01:14.530Z,13.43
2019-01-29T19:03:43.648Z,15.03
2019-01-29T19:06:12.749Z,13.87
2019-01-29T19:08:43.277Z,13.73
2019-01-29T19:11:13.593Z,14.50
2019-01-29T19:13:42.692Z,15.30
2019-01-29T19:16:11.911Z,16.87
2019-01-29T19:18:42.922Z,14.87
2019-01-29T19:21:12.034Z,19.60
2019-01-29T19:23:41.161Z,20.13
2019-01-29T19:26:10.315Z,17.37
2019-01-29T19:28:39.449Z,14.93
2019-01-29T20:38:36.717Z,10.60
2019-01-29T20:41:05.895Z,11.83
2019-01-29T20:43:35.094Z,11.67
2019-01-29T20:46:04.223Z,10.20
2019-01-29T20:48:33.323Z,11.50
2019-01-29T20:51:02.431Z,11.53
2019-01-29T20:53:31.536Z,10.83
2019-01-29T20:56:02.270Z,11.03
2019-01-29T20:58:31.376Z,10.17
2019-01-29T21:01:00.495Z,10.67
2019-01-29T21:03:29.595Z,10.67
2019-01-29T21:06:00.355Z,10.50
2019-01-29T21:08:29.475Z,10.67
2019-01-29T21:11:00.220Z,10.57
2019-01-29T21:13:29.322Z,10.27
2019-01-29T21:15:58.452Z,9.83
2019-01-29T21:18:27.587Z,9.37
2019-01-29T21:20:57.389Z,10.83
2019-01-29T21:23:26.796Z,10.83
2019-01-29T21:25:55.932Z,11.87
2019-01-29T21:28:25.111Z,11.60
2019-01-29T21:30:54.207Z,10.00
2019-01-29T21:33:23.331Z,10.83
2019-01-29T21:35:52.452Z,10.50
2019-01-29T21:38:21.587Z,9.67
2019-01-29T21:40:50.722Z,10.60
2019-01-29T21:43:19.827Z,10.27
2019-01-29T21:45:48.928Z,11.13
2019-01-29T21:48:18.148Z,11.43
2019-01-29T21:50:47.263Z,10.53
2019-01-29T21:53:16.384Z,10.80
2019-01-29T21:55:45.498Z,9.70
2019-01-29T21:58:14.605Z,11.97
2019-01-29T22:00:43.703Z,11.03
2019-01-29T22:03:12.827Z,10.83
2019-01-29T22:39:07.324Z,13.50
2019-01-29T22:41:36.503Z,13.80
2019-01-29T22:44:05.623Z,14.80
2019-01-29T22:46:34.727Z,14.73
2019-01-29T22:49:03.851Z,15.23
2019-01-29T22:51:32.970Z,15.63
2019-01-29T22:54:02.100Z,15.47
2019-01-29T22:56:31.211Z,15.47
2019-01-29T22:59:00.327Z,16.63
2019-01-29T23:01:31.376Z,14.17
2019-01-29T23:04:00.754Z,14.63
2019-01-29T23:06:33.228Z,16.10
2019-01-29T23:09:03.219Z,14.70
2019-01-29T23:11:33.964Z,15.53
2019-01-29T23:14:03.059Z,14.87
2019-01-29T23:16:32.160Z,14.90
2019-01-29T23:19:01.280Z,15.47
2019-01-29T23:21:30.376Z,13.17
2019-01-29T23:23:59.486Z,12.93
2019-01-29T23:26:28.667Z,14.53
2019-01-29T23:28:57.859Z,14.93
2019-01-29T23:31:26.958Z,14.03
2019-01-29T23:33:56.075Z,16.13
2019-01-29T23:36:25.191Z,13.13
2019-01-29T23:38:54.302Z,16.23
2019-01-29T23:41:24.480Z,14.53
2019-01-29T23:43:53.588Z,16.03
2019-01-29T23:46:22.694Z,15.90
2019-01-29T23:48:51.838Z,12.13
2019-01-29T23:51:20.938Z,13.90
2019-01-29T23:53:50.063Z,13.67
2019-01-29T23:56:19.159Z,13.77
2019-01-29T23:58:48.290Z,15.37
